Catalina, AZ (85739)

1:30 PM MST on February 13, 2016 (GMT -0700)
Sameniego Heights | | Change Station
CLOSE
Current Station
Personal Weather Station
Location: Tucson, AZ
Elevation: 3156 ft
Nearby Weather Stations

Elev 3156 ft 32.50 °N, 110.90 °W | Updated 10 seconds ago

Clear
Clear
80.6 °F
Feels Like 79 °F
N
0.9
Wind Variable Wind from ESE
Gusts 2.5 mph

Today
High -- | Low -- °F
--% Chance of Precip.
Yesterday
High -- | Low -- °F
Precip. -- in
Pressure 29.99 in
Visibility 10.0 miles
Clouds Clear
Heat Index 79 °F
Dew Point 19 °F
Humidity 10%
Rainfall 0.00 in
Snow Depth Not available.
7:08 AM 6:07 PM
Waxing Crescent, 34% visible
METAR KDMA 131958Z AUTO 34004KT 10SM CLR 26/M07 A3007 RMK AO2 SLP153 T02611070 $
Pressure 29.99 in
Visibility 10.0 miles
Clouds Clear
Heat Index 79 °F
Dew Point 19 °F
Humidity 10%
Rainfall 0.00 in
Snow Depth Not available.
7:08 AM 6:07 PM
Waxing Crescent, 34% visible
METAR KDMA 131958Z AUTO 34004KT 10SM CLR 26/M07 A3007 RMK AO2 SLP153 T02611070 $

10-Day Weather Forecast

Almanac

Astronomy

Feb. 13, 2016 Rise Set
Actual Time
Civil Twilight
Nautical Twilight
Astronomical Twilight
Moon
Length of Visible Light
Length of Day
Tomorrow will be .
, % of the Moon is Illuminated

Today's Extremes

State Highs State Lows

Community

WunderPhotos

Upload Photos

1,892,658 photos uploaded!

WunderBlog® & News

Nearby

Air Quality

  Air Quality AQ Index Pollutant
Not available.

Snow Depth

Station Depth Elevation

Earthquake Activity

City Distance Mag. Time & Date
Minimum magnitude displayed is 2.5.

Coastal Water Temperatures

Place Temperature

Stations

Nearby Weather Stations

Station Location Temp. Windchill Dew Point Humidity Wind Precip. Elev Updated Type
                   

Watches & Warnings

There are currently no watches in effect.